Time;durP1;ratioP1;P1;durP2;ratioP2;P2;SDS_P1;SDS_P2;PMS_P1;PMS_P2;Temp;Humidity;BMP_temperature;BMP_pressure;BME280_temperature;BME280_humidity;BME280_pressure;Samples;Min_cycle;Max_cycle;Signal;HPM_P1;HPM_P2
2022/01/29 08:07:05;;;;;;;6.93;3.43;;;9.00;99.90;;;;;;4335856;22;20241;-70
2022/01/29 08:09:32;;;;;;;5.93;3.50;;;9.00;99.90;;;;;;5031627;28;20217;-70
2022/01/29 08:11:59;;;;;;;6.33;3.50;;;9.20;99.90;;;;;;5031055;28;20224;-71
2022/01/29 08:14:26;;;;;;;6.80;3.67;;;9.20;99.90;;;;;;5019380;28;20221;-70
2022/01/29 08:16:52;;;;;;;10.23;4.33;;;9.20;99.90;;;;;;5011838;28;20213;-71
2022/01/29 08:19:19;;;;;;;8.30;3.73;;;9.30;99.90;;;;;;5013847;28;20202;-70
2022/01/29 08:21:46;;;;;;;6.13;3.07;;;9.30;99.90;;;;;;5017025;28;20208;-70
2022/01/29 08:24:15;;;;;;;6.53;3.07;;;9.30;99.90;;;;;;5016383;28;20666;-70
2022/01/29 08:26:42;;;;;;;4.97;2.83;;;9.40;99.90;;;;;;5018733;28;20214;-70
2022/01/29 08:29:09;;;;;;;4.77;2.83;;;9.40;99.90;;;;;;5015667;28;20197;-70
2022/01/29 08:31:35;;;;;;;5.03;2.77;;;9.40;99.90;;;;;;5015796;28;20232;-70
2022/01/29 08:34:03;;;;;;;3.70;2.40;;;9.50;99.90;;;;;;5015817;28;20319;-70
2022/01/29 08:36:29;;;;;;;4.53;2.47;;;9.60;99.90;;;;;;5015304;28;20221;-71
2022/01/29 08:38:56;;;;;;;3.77;2.50;;;9.50;99.90;;;;;;5013804;28;20206;-70
2022/01/29 08:41:25;;;;;;;3.70;2.20;;;9.50;99.90;;;;;;5012182;28;20197;-70
2022/01/29 08:43:52;;;;;;;6.27;2.43;;;9.50;99.90;;;;;;5018675;28;20775;-70
2022/01/29 08:46:19;;;;;;;8.27;2.63;;;9.50;99.90;;;;;;5014593;28;20198;-70
2022/01/29 08:48:45;;;;;;;3.47;2.00;;;9.50;99.90;;;;;;5014160;28;20206;-70
2022/01/29 08:51:12;;;;;;;3.50;2.10;;;9.50;99.90;;;;;;5015329;28;20205;-70
2022/01/29 08:53:41;;;;;;;3.17;2.30;;;9.60;99.90;;;;;;5014994;28;20225;-70
2022/01/29 08:56:08;;;;;;;4.30;1.93;;;9.60;99.90;;;;;;5015458;28;20198;-70
2022/01/29 08:58:36;;;;;;;3.33;1.90;;;9.60;99.90;;;;;;5018525;28;20227;-70
2022/01/29 09:01:07;;;;;;;2.90;1.73;;;9.50;99.90;;;;;;5015604;28;20213;-70
2022/01/29 09:03:34;;;;;;;3.07;2.00;;;9.50;99.90;;;;;;5015389;28;20230;-71
2022/01/29 09:06:01;;;;;;;3.00;1.80;;;9.60;99.90;;;;;;5018740;28;20201;-70
2022/01/29 09:08:29;;;;;;;2.17;1.30;;;9.40;99.90;;;;;;5014900;28;20210;-69
2022/01/29 09:10:57;;;;;;;3.27;1.60;;;9.30;99.90;;;;;;5015565;28;20264;-69
2022/01/29 09:13:24;;;;;;;2.57;1.80;;;9.30;99.90;;;;;;5015645;28;20237;-69
2022/01/29 09:15:53;;;;;;;2.57;1.57;;;9.30;99.90;;;;;;5015913;28;20301;-70
2022/01/29 09:18:19;;;;;;;4.47;1.50;;;9.40;99.90;;;;;;5015818;28;20198;-70
2022/01/29 09:20:46;;;;;;;2.77;1.53;;;9.40;99.90;;;;;;5015517;28;20210;-70
2022/01/29 09:23:13;;;;;;;2.10;1.60;;;9.30;99.90;;;;;;5015259;28;20232;-70
2022/01/29 09:25:41;;;;;;;3.03;1.93;;;9.30;99.90;;;;;;5018945;28;20201;-70
2022/01/29 09:28:09;;;;;;;3.43;1.60;;;9.30;99.90;;;;;;5015507;28;20216;-70
2022/01/29 09:30:36;;;;;;;2.43;1.47;;;9.40;99.90;;;;;;5014786;28;20214;-70
2022/01/29 09:33:04;;;;;;;2.70;1.87;;;9.40;99.90;;;;;;5015148;28;20237;-70
2022/01/29 09:35:31;;;;;;;3.20;1.93;;;9.50;99.90;;;;;;5015343;28;20684;-70
2022/01/29 09:37:58;;;;;;;2.77;1.70;;;9.50;99.90;;;;;;5015066;28;20572;-70
2022/01/29 09:40:25;;;;;;;3.27;1.93;;;9.40;99.90;;;;;;5015483;28;20202;-70
2022/01/29 09:42:53;;;;;;;2.33;1.70;;;9.40;99.90;;;;;;5018981;28;20212;-68
2022/01/29 09:45:23;;;;;;;3.30;1.77;;;9.50;99.90;;;;;;5015410;28;20380;-68
2022/01/29 09:47:50;;;;;;;3.43;2.10;;;9.60;99.90;;;;;;5015358;28;20555;-70
2022/01/29 09:50:19;;;;;;;2.67;1.80;;;9.70;99.90;;;;;;5014857;28;20216;-70
2022/01/29 09:52:46;;;;;;;5.40;2.40;;;9.80;99.90;;;;;;5014811;28;20229;-70
2022/01/29 09:55:13;;;;;;;4.97;2.97;;;9.90;99.90;;;;;;5015015;28;20229;-70
2022/01/29 09:57:40;;;;;;;3.83;2.30;;;10.00;99.90;;;;;;5015059;28;20657;-70
2022/01/29 10:00:10;;;;;;;3.57;1.80;;;10.00;99.90;;;;;;5018638;28;20224;-70
2022/01/29 10:02:37;;;;;;;2.93;1.97;;;10.10;99.90;;;;;;5015015;28;20210;-69
2022/01/29 10:05:05;;;;;;;3.20;2.00;;;10.20;99.90;;;;;;5014868;28;20240;-70
2022/01/29 10:07:33;;;;;;;3.87;1.90;;;10.20;99.90;;;;;;5014584;28;20352;-70
2022/01/29 10:10:03;;;;;;;2.77;1.63;;;10.30;99.90;;;;;;5014962;28;20206;-70
2022/01/29 10:12:31;;;;;;;1.83;1.43;;;10.40;99.90;;;;;;5015019;28;20261;-69
2022/01/29 10:15:00;;;;;;;2.47;1.60;;;10.40;99.90;;;;;;5014770;28;20222;-67
2022/01/29 10:17:44;;;;;;;3.77;1.60;;;10.40;99.90;;;;;;5018198;28;20205;-69
2022/01/29 10:20:14;;;;;;;2.60;1.50;;;10.40;99.90;;;;;;5014772;28;20220;-68
2022/01/29 10:22:45;;;;;;;4.40;1.93;;;10.50;99.90;;;;;;5014451;28;20296;-68
2022/01/29 10:25:14;;;;;;;3.07;1.77;;;10.60;99.90;;;;;;5014808;28;20309;-69
2022/01/29 10:28:13;;;;;;;2.50;1.50;;;10.50;99.90;;;;;;5014481;28;20205;-69
2022/01/29 10:30:55;;;;;;;2.50;1.43;;;10.50;99.90;;;;;;5013433;28;20216;-69
2022/01/29 10:33:23;;;;;;;3.07;1.87;;;10.60;99.90;;;;;;5008167;28;20708;-68
2022/01/29 10:35:52;;;;;;;2.17;1.10;;;10.50;99.90;;;;;;5004432;28;20203;-69
2022/01/29 10:38:23;;;;;;;2.20;1.10;;;10.60;99.90;;;;;;5003722;28;20199;-68
2022/01/29 10:41:20;;;;;;;2.67;1.50;;;10.50;99.90;;;;;;5004001;28;20199;-69
2022/01/29 10:44:09;;;;;;;2.27;1.40;;;10.50;99.90;;;;;;5002713;28;20222;-69
2022/01/29 10:46:36;;;;;;;1.50;1.20;;;10.60;99.90;;;;;;4991740;28;20207;-69
2022/01/29 10:49:04;;;;;;;1.43;1.10;;;10.70;99.90;;;;;;5007508;28;20198;-70
2022/01/29 10:51:33;;;;;;;1.93;0.90;;;10.70;99.90;;;;;;5027541;28;20601;-68
2022/01/29 10:54:16;;;;;;;1.77;1.23;;;10.80;99.90;;;;;;5015261;28;20233;-69
2022/01/29 10:56:54;;;;;;;2.13;1.30;;;10.90;99.90;;;;;;5012694;28;20202;-70
2022/01/29 10:59:22;;;;;;;1.50;1.10;;;10.90;99.90;;;;;;5012675;28;20206;-70
2022/01/29 11:01:50;;;;;;;3.47;1.10;;;10.90;99.90;;;;;;5013404;28;20209;-70
2022/01/29 11:04:17;;;;;;;2.33;1.23;;;10.90;99.90;;;;;;5013008;28;20280;-70
2022/01/29 11:06:46;;;;;;;3.47;1.30;;;11.00;99.90;;;;;;5016720;28;20215;-70
2022/01/29 11:09:15;;;;;;;1.60;1.10;;;11.10;99.90;;;;;;5013450;28;20594;-70
2022/01/29 11:11:45;;;;;;;1.60;1.00;;;11.20;99.90;;;;;;5013368;28;20201;-70
2022/01/29 11:14:12;;;;;;;1.70;1.07;;;11.30;99.90;;;;;;5012758;28;20241;-70
2022/01/29 11:16:40;;;;;;;2.43;1.13;;;11.40;99.90;;;;;;5026490;28;20197;-69
2022/01/29 11:19:07;;;;;;;2.10;1.10;;;11.40;99.90;;;;;;5032982;28;20208;-70
2022/01/29 11:21:35;;;;;;;3.27;1.07;;;11.50;99.90;;;;;;5032941;28;20216;-69
2022/01/29 11:24:02;;;;;;;2.13;0.90;;;11.40;99.90;;;;;;5032209;28;20617;-70
2022/01/29 11:26:32;;;;;;;3.23;1.40;;;11.30;99.90;;;;;;5032998;28;20213;-69
2022/01/29 11:29:24;;;;;;;2.37;1.27;;;11.30;99.90;;;;;;5015858;28;20658;-69
2022/01/29 11:32:27;;;;;;;4.70;1.30;;;11.40;99.90;;;;;;5012251;28;20206;-70
2022/01/29 11:35:16;;;;;;;2.57;1.10;;;11.50;99.90;;;;;;5002380;28;20225;-69
2022/01/29 11:37:49;;;;;;;4.97;1.40;;;11.40;99.90;;;;;;5013110;28;20202;-70
2022/01/29 11:40:31;;;;;;;3.13;1.30;;;11.50;99.90;;;;;;5012182;28;20206;-69
2022/01/29 11:43:27;;;;;;;3.80;1.50;;;11.50;99.90;;;;;;5012706;28;20248;-70
2022/01/29 11:45:57;;;;;;;1.90;1.20;;;11.30;99.90;;;;;;5012758;28;20221;-69
2022/01/29 11:48:58;;;;;;;1.53;1.00;;;11.40;99.90;;;;;;5012314;28;20206;-69
2022/01/29 11:51:52;;;;;;;4.93;1.27;;;11.30;99.90;;;;;;5012536;28;20202;-70
2022/01/29 11:54:22;;;;;;;1.80;1.13;;;11.30;99.90;;;;;;5015535;28;20236;-70
2022/01/29 11:56:49;;;;;;;4.00;1.40;;;11.30;99.90;;;;;;5012287;28;20285;-69
2022/01/29 11:59:28;;;;;;;3.20;1.27;;;11.30;99.90;;;;;;5011287;28;20206;-69
2022/01/29 12:01:57;;;;;;;1.73;0.97;;;11.40;99.90;;;;;;5012789;28;20743;-69
2022/01/29 12:04:45;;;;;;;3.93;1.00;;;11.40;99.90;;;;;;5012171;28;20610;-69
2022/01/29 12:07:15;;;;;;;3.20;1.00;;;11.60;99.90;;;;;;5008051;28;20205;-69
2022/01/29 12:09:47;;;;;;;2.70;1.00;;;11.60;99.90;;;;;;5010701;28;20194;-70
2022/01/29 12:12:17;;;;;;;6.67;1.10;;;11.60;99.90;;;;;;5008050;28;20332;-70
2022/01/29 12:14:46;;;;;;;1.90;1.10;;;11.70;99.90;;;;;;5008886;28;20233;-69
2022/01/29 12:17:32;;;;;;;1.77;1.37;;;11.70;99.90;;;;;;5016119;28;20210;-69
2022/01/29 12:20:01;;;;;;;6.83;1.20;;;11.60;99.90;;;;;;5012532;28;20232;-69
2022/01/29 12:22:28;;;;;;;3.50;0.97;;;11.50;99.90;;;;;;5012210;28;20212;-70
2022/01/29 12:24:56;;;;;;;2.70;1.00;;;11.50;99.90;;;;;;5007982;28;20227;-70
2022/01/29 12:27:24;;;;;;;3.73;0.90;;;11.60;99.90;;;;;;4999306;28;20198;-70
2022/01/29 12:29:52;;;;;;;2.63;1.00;;;11.60;99.90;;;;;;5000872;28;20213;-70
2022/01/29 12:32:19;;;;;;;2.17;0.80;;;11.60;99.90;;;;;;4993005;28;20202;-70
2022/01/29 12:34:54;;;;;;;2.90;1.10;;;11.70;99.90;;;;;;4998901;28;20229;-69
2022/01/29 12:37:21;;;;;;;3.13;0.80;;;11.90;99.90;;;;;;4997038;28;20198;-70
2022/01/29 12:39:49;;;;;;;3.77;0.90;;;11.70;99.90;;;;;;5004999;28;20301;-70
2022/01/29 12:42:28;;;;;;;4.73;1.10;;;11.60;99.90;;;;;;5001769;28;20220;-70
2022/01/29 12:45:00;;;;;;;1.33;0.73;;;11.60;99.90;;;;;;4999618;28;20222;-71
2022/01/29 12:47:30;;;;;;;1.70;0.80;;;11.70;99.90;;;;;;5003657;28;20641;-70
2022/01/29 12:49:57;;;;;;;4.47;0.80;;;11.70;99.90;;;;;;5000290;28;20586;-71
2022/01/29 12:52:25;;;;;;;2.63;0.90;;;11.80;99.90;;;;;;4995516;28;20199;-69
2022/01/29 12:54:53;;;;;;;1.77;0.70;;;11.80;99.90;;;;;;5008392;28;20253;-70
2022/01/29 12:57:21;;;;;;;5.37;1.00;;;11.90;99.90;;;;;;5005243;28;20265;-70
2022/01/29 12:59:48;;;;;;;3.33;0.80;;;11.90;99.90;;;;;;4990630;28;20199;-71
2022/01/29 13:02:17;;;;;;;1.47;1.10;;;12.00;99.90;;;;;;5005569;28;20687;-71
2022/01/29 13:04:46;;;;;;;6.07;1.73;;;12.20;99.90;;;;;;4999251;28;20230;-70
2022/01/29 13:07:14;;;;;;;2.47;1.00;;;12.20;99.90;;;;;;5010562;28;20209;-70
2022/01/29 13:09:41;;;;;;;1.47;1.03;;;12.00;99.90;;;;;;5015000;28;20570;-70
2022/01/29 13:12:12;;;;;;;1.67;0.80;;;12.00;99.90;;;;;;4999020;28;20210;-70
2022/01/29 13:14:40;;;;;;;2.97;0.80;;;12.00;99.90;;;;;;5002568;28;20285;-71
2022/01/29 13:17:08;;;;;;;0.93;0.70;;;12.00;99.90;;;;;;5011114;28;20208;-68
2022/01/29 13:19:37;;;;;;;1.43;0.70;;;11.90;99.90;;;;;;5009228;28;20209;-73
2022/01/29 13:22:06;;;;;;;1.77;0.77;;;11.70;99.90;;;;;;5012229;28;20204;-70
2022/01/29 13:24:36;;;;;;;2.80;1.20;;;11.80;99.90;;;;;;5012827;28;20213;-71
2022/01/29 13:27:08;;;;;;;1.33;0.80;;;11.80;99.90;;;;;;5013787;28;20206;-72
2022/01/29 13:29:36;;;;;;;2.20;0.70;;;11.70;99.90;;;;;;5011895;28;20201;-72
2022/01/29 13:32:05;;;;;;;0.97;0.67;;;11.70;99.90;;;;;;5014214;28;20280;-72
2022/01/29 13:34:34;;;;;;;2.00;0.70;;;11.90;99.90;;;;;;5014090;28;20701;-71
2022/01/29 13:37:05;;;;;;;8.50;1.00;;;11.70;99.90;;;;;;5014245;28;20202;-71
2022/01/29 13:39:48;;;;;;;2.10;0.80;;;11.70;99.90;;;;;;5015336;28;20202;-72
2022/01/29 13:42:17;;;;;;;1.07;0.60;;;11.80;99.90;;;;;;5014926;28;20252;-71
2022/01/29 13:45:06;;;;;;;3.73;0.77;;;11.90;99.90;;;;;;5018404;28;20236;-71
2022/01/29 13:47:34;;;;;;;2.20;0.67;;;12.10;99.90;;;;;;5012510;28;20657;-71
2022/01/29 13:50:27;;;;;;;2.13;0.80;;;12.10;99.90;;;;;;5014438;28;20209;-71
2022/01/29 13:53:00;;;;;;;3.23;0.77;;;12.10;99.90;;;;;;5013420;28;20201;-71
2022/01/29 13:55:27;;;;;;;0.87;0.60;;;12.10;99.90;;;;;;5014474;28;20654;-71
2022/01/29 13:58:06;;;;;;;1.03;0.70;;;12.20;99.90;;;;;;5014715;28;20209;-71
2022/01/29 14:00:56;;;;;;;3.10;0.70;;;12.20;99.90;;;;;;5014292;28;20212;-71
2022/01/29 14:03:44;;;;;;;1.70;0.67;;;12.20;99.90;;;;;;5017352;28;20222;-71
2022/01/29 14:06:30;;;;;;;3.97;0.90;;;12.20;99.90;;;;;;5015102;28;20674;-71
2022/01/29 14:09:17;;;;;;;2.07;0.70;;;12.20;99.90;;;;;;5014824;28;20209;-71
2022/01/29 14:12:16;;;;;;;2.00;0.60;;;12.20;99.90;;;;;;5014691;28;20578;-71
2022/01/29 14:14:46;;;;;;;2.70;0.87;;;12.20;99.90;;;;;;5014768;28;20330;-71
2022/01/29 14:17:15;;;;;;;1.40;0.60;;;12.40;99.90;;;;;;5014297;28;20241;-71
2022/01/29 14:19:44;;;;;;;3.87;0.90;;;12.40;99.90;;;;;;5014105;28;20212;-71
2022/01/29 14:22:12;;;;;;;1.13;0.70;;;12.40;99.90;;;;;;5020135;28;20647;-71
2022/01/29 14:24:41;;;;;;;1.93;0.60;;;12.30;99.90;;;;;;5014125;28;20260;-71
2022/01/29 14:27:09;;;;;;;2.13;0.57;;;12.30;99.90;;;;;;5014118;28;20209;-71
2022/01/29 14:29:37;;;;;;;2.00;0.80;;;12.20;99.90;;;;;;5013671;28;20535;-71
2022/01/29 14:32:05;;;;;;;3.63;0.80;;;12.20;99.90;;;;;;5014002;28;20212;-69
2022/01/29 14:34:32;;;;;;;1.87;0.70;;;12.30;99.90;;;;;;5014153;28;20241;-71
2022/01/29 14:36:59;;;;;;;1.60;0.60;;;12.30;99.90;;;;;;5015538;28;20197;-69
2022/01/29 14:39:28;;;;;;;1.67;0.60;;;12.30;99.90;;;;;;5015721;28;20206;-69
2022/01/29 14:41:59;;;;;;;1.00;0.73;;;12.30;99.90;;;;;;5013836;28;20213;-69
2022/01/29 14:44:27;;;;;;;2.40;0.77;;;12.20;99.90;;;;;;5013653;28;20233;-70
2022/01/29 14:46:54;;;;;;;4.47;0.80;;;12.30;99.90;;;;;;5023187;28;20547;-69
2022/01/29 14:49:23;;;;;;;4.93;0.90;;;12.30;99.90;;;;;;5033732;28;20205;-69
2022/01/29 14:51:50;;;;;;;4.07;0.80;;;12.30;99.90;;;;;;5033481;28;20231;-69
2022/01/29 14:54:17;;;;;;;1.53;0.60;;;12.30;99.90;;;;;;5032611;28;20247;-70
2022/01/29 14:56:45;;;;;;;2.70;0.83;;;12.30;99.90;;;;;;5023619;28;20198;-69
2022/01/29 14:59:14;;;;;;;7.57;1.97;;;12.20;99.90;;;;;;5013722;28;20565;-69
2022/01/29 15:01:41;;;;;;;0.97;0.67;;;12.20;99.90;;;;;;5013297;28;20202;-69
2022/01/29 15:04:09;;;;;;;2.53;0.80;;;12.30;99.90;;;;;;5017046;28;20227;-69
2022/01/29 15:06:36;;;;;;;3.10;0.70;;;12.30;99.90;;;;;;5013370;28;20213;-69
2022/01/29 15:09:04;;;;;;;2.20;0.70;;;12.30;99.90;;;;;;5013154;28;20201;-69
2022/01/29 15:11:31;;;;;;;2.03;0.60;;;12.40;99.90;;;;;;5013010;28;20205;-69
2022/01/29 15:13:59;;;;;;;2.83;0.77;;;12.30;99.90;;;;;;5013008;28;20249;-69
2022/01/29 15:16:27;;;;;;;4.43;1.37;;;12.20;99.90;;;;;;5013057;28;20732;-69
2022/01/29 15:18:54;;;;;;;4.00;1.00;;;12.20;99.90;;;;;;5013445;28;20210;-69
2022/01/29 15:21:21;;;;;;;1.37;0.53;;;12.20;99.90;;;;;;5013222;28;20744;-69
2022/01/29 15:23:48;;;;;;;1.33;0.70;;;12.20;99.90;;;;;;5015846;28;20734;-69
2022/01/29 15:26:15;;;;;;;4.33;0.80;;;12.20;99.90;;;;;;5012748;28;20212;-69
2022/01/29 15:28:42;;;;;;;1.60;0.40;;;12.10;99.90;;;;;;5012528;28;20654;-70
2022/01/29 15:31:09;;;;;;;3.53;0.97;;;12.10;99.90;;;;;;5012922;28;20220;-69
2022/01/29 15:33:37;;;;;;;4.00;0.70;;;12.00;99.90;;;;;;5012758;28;20321;-70
2022/01/29 15:36:06;;;;;;;3.60;0.90;;;11.90;99.90;;;;;;5011955;28;20201;-69
2022/01/29 15:38:34;;;;;;;4.17;1.33;;;11.90;99.90;;;;;;5015130;28;20197;-69
2022/01/29 15:41:03;;;;;;;2.13;0.83;;;12.00;99.90;;;;;;5032682;28;20564;-70
2022/01/29 15:43:30;;;;;;;3.23;0.73;;;12.00;99.90;;;;;;5032184;28;20235;-70
2022/01/29 15:45:58;;;;;;;1.90;0.93;;;12.20;99.90;;;;;;5028020;28;20198;-70
2022/01/29 15:48:26;;;;;;;3.70;1.00;;;12.40;99.90;;;;;;5031993;28;20205;-70
2022/01/29 15:50:55;;;;;;;2.30;0.60;;;12.60;99.90;;;;;;5032271;28;20207;-70
2022/01/29 15:53:24;;;;;;;3.83;1.30;;;12.40;99.90;;;;;;5031292;28;20315;-70
2022/01/29 15:55:51;;;;;;;4.07;0.70;;;12.20;99.90;;;;;;5032689;28;20291;-70
2022/01/29 15:58:21;;;;;;;2.90;0.80;;;12.20;99.90;;;;;;5032277;28;20224;-70
2022/01/29 16:00:50;;;;;;;3.70;0.70;;;12.10;99.90;;;;;;5032189;28;20212;-71
2022/01/29 16:03:18;;;;;;;3.90;0.97;;;12.00;99.90;;;;;;5021831;28;20198;-70
2022/01/29 16:05:48;;;;;;;3.30;0.90;;;11.90;99.90;;;;;;5012858;28;20205;-70
2022/01/29 16:08:20;;;;;;;4.43;0.90;;;11.80;99.90;;;;;;5012062;28;20674;-70
2022/01/29 16:10:51;;;;;;;2.10;0.70;;;11.80;99.90;;;;;;5012377;28;20623;-71
2022/01/29 16:13:19;;;;;;;7.67;1.50;;;11.70;99.90;;;;;;5012241;28;20213;-70
2022/01/29 16:15:46;;;;;;;3.77;0.80;;;11.80;99.90;;;;;;5012486;28;20296;-71
2022/01/29 16:18:13;;;;;;;4.00;0.90;;;11.70;99.90;;;;;;5014492;28;20297;-70
2022/01/29 16:20:40;;;;;;;3.20;1.00;;;11.70;99.90;;;;;;5013891;28;20202;-71
2022/01/29 16:23:08;;;;;;;2.53;1.10;;;11.70;99.90;;;;;;5012316;28;20212;-70
2022/01/29 16:25:37;;;;;;;1.83;0.70;;;11.60;99.90;;;;;;5012044;28;20216;-70
2022/01/29 16:28:06;;;;;;;5.40;0.90;;;11.80;99.90;;;;;;5012096;28;20206;-70
2022/01/29 16:30:33;;;;;;;2.60;0.83;;;11.80;99.90;;;;;;5010922;28;20551;-71
2022/01/29 16:33:00;;;;;;;4.80;1.20;;;11.80;99.90;;;;;;5011699;28;20202;-70
2022/01/29 16:35:27;;;;;;;2.43;0.93;;;11.80;99.90;;;;;;5011229;28;20248;-70
2022/01/29 16:37:54;;;;;;;3.47;1.23;;;11.70;99.90;;;;;;5011544;28;20212;-71
2022/01/29 16:40:21;;;;;;;3.27;1.03;;;11.70;99.90;;;;;;5012295;28;20236;-70
2022/01/29 16:42:50;;;;;;;3.23;0.80;;;11.60;99.90;;;;;;5014987;28;20197;-70
2022/01/29 16:45:17;;;;;;;5.63;1.13;;;11.60;99.90;;;;;;5014604;28;20317;-71
2022/01/29 16:47:44;;;;;;;2.57;1.23;;;11.50;99.90;;;;;;5015148;28;20202;-70
2022/01/29 16:50:11;;;;;;;2.30;1.00;;;11.50;99.90;;;;;;5015330;28;20200;-70
2022/01/29 16:52:38;;;;;;;4.50;1.10;;;11.40;99.90;;;;;;5019505;28;20197;-70
2022/01/29 16:55:06;;;;;;;5.70;0.80;;;11.40;99.90;;;;;;5015689;28;20694;-70
2022/01/29 16:57:33;;;;;;;3.67;1.30;;;11.30;99.90;;;;;;5014944;28;20204;-70
2022/01/29 17:00:01;;;;;;;3.13;1.00;;;11.20;99.90;;;;;;5015088;28;20206;-69
2022/01/29 17:02:28;;;;;;;3.73;1.30;;;11.10;99.90;;;;;;5018317;28;20205;-70
2022/01/29 17:04:55;;;;;;;3.97;1.13;;;11.00;99.90;;;;;;5017654;28;20222;-70
2022/01/29 17:07:22;;;;;;;2.13;1.17;;;11.00;99.90;;;;;;5015575;28;20209;-71
2022/01/29 17:09:49;;;;;;;5.67;1.20;;;10.90;99.90;;;;;;5014830;28;20215;-70
2022/01/29 17:12:16;;;;;;;7.13;1.30;;;10.80;99.90;;;;;;5015018;28;20208;-70
2022/01/29 17:14:45;;;;;;;7.07;1.53;;;10.80;99.90;;;;;;5014480;28;20234;-70
2022/01/29 17:17:13;;;;;;;5.43;1.43;;;10.80;99.90;;;;;;5015400;28;20209;-72
2022/01/29 17:19:40;;;;;;;8.23;1.20;;;10.90;99.90;;;;;;5013883;28;20205;-71
2022/01/29 17:22:07;;;;;;;3.00;1.40;;;10.90;99.90;;;;;;5017639;28;20241;-70
2022/01/29 17:24:33;;;;;;;6.30;1.37;;;10.80;99.90;;;;;;5011517;28;20218;-71
2022/01/29 17:27:00;;;;;;;4.17;1.50;;;10.80;99.90;;;;;;5014507;28;20208;-71
2022/01/29 17:29:27;;;;;;;3.97;1.43;;;10.80;99.90;;;;;;5022939;28;20663;-71
2022/01/29 17:31:54;;;;;;;3.10;1.23;;;10.70;99.90;;;;;;5034695;28;20207;-70
2022/01/29 17:34:22;;;;;;;4.03;1.20;;;10.60;99.90;;;;;;5034974;28;20406;-71
2022/01/29 17:36:49;;;;;;;4.37;1.23;;;10.70;99.90;;;;;;5032250;28;20284;-70
2022/01/29 17:39:16;;;;;;;4.83;1.23;;;10.70;99.90;;;;;;5025046;28;20292;-72
2022/01/29 17:41:43;;;;;;;4.50;1.50;;;10.60;99.90;;;;;;5014794;28;20213;-70
2022/01/29 17:44:10;;;;;;;5.13;1.40;;;10.60;99.90;;;;;;5014671;28;20225;-72
2022/01/29 17:46:37;;;;;;;3.50;1.10;;;10.50;99.90;;;;;;5014994;28;20622;-70
2022/01/29 17:49:05;;;;;;;3.87;1.20;;;10.50;99.90;;;;;;5014165;28;20209;-70
2022/01/29 17:51:33;;;;;;;2.87;1.20;;;10.50;99.90;;;;;;5012822;28;20194;-72
2022/01/29 17:54:00;;;;;;;5.40;1.30;;;10.50;99.90;;;;;;5020949;28;20236;-71
2022/01/29 17:56:27;;;;;;;7.93;1.57;;;10.50;99.90;;;;;;5034326;28;20268;-71
2022/01/29 17:58:54;;;;;;;3.93;0.97;;;10.40;99.90;;;;;;5030139;28;20214;-72
2022/01/29 18:01:22;;;;;;;4.83;1.40;;;10.40;99.90;;;;;;5014994;28;20244;-71
2022/01/29 18:03:49;;;;;;;4.60;1.10;;;10.40;99.90;;;;;;5030285;28;20717;-71
2022/01/29 18:06:16;;;;;;;5.33;2.00;;;10.40;99.90;;;;;;5014817;28;20202;-71
2022/01/29 18:08:44;;;;;;;5.37;1.30;;;10.50;99.90;;;;;;5013883;28;20209;-71
2022/01/29 18:11:11;;;;;;;4.33;1.27;;;10.50;99.90;;;;;;5014735;28;20312;-71
2022/01/29 18:13:39;;;;;;;4.30;1.37;;;10.60;99.90;;;;;;5014026;28;20590;-70
2022/01/29 18:16:06;;;;;;;6.77;1.67;;;10.60;99.90;;;;;;5014486;28;20237;-71
2022/01/29 18:18:33;;;;;;;7.57;1.30;;;10.60;99.90;;;;;;5014067;28;20205;-71
2022/01/29 18:21:00;;;;;;;6.03;1.53;;;10.60;99.90;;;;;;5022660;28;20212;-71
2022/01/29 18:23:27;;;;;;;8.23;1.63;;;10.60;99.90;;;;;;5034314;28;20312;-71
2022/01/29 18:25:55;;;;;;;5.13;1.40;;;10.60;99.90;;;;;;5017330;28;20201;-71
2022/01/29 18:28:24;;;;;;;5.87;1.90;;;10.50;99.90;;;;;;5013057;28;20208;-71
2022/01/29 18:30:52;;;;;;;5.37;1.50;;;10.50;99.90;;;;;;5006560;28;20690;-71
2022/01/29 18:33:19;;;;;;;4.30;1.23;;;10.60;99.90;;;;;;5008697;28;20198;-71
2022/01/29 18:35:46;;;;;;;3.70;1.40;;;10.60;99.90;;;;;;5013274;28;20225;-71
2022/01/29 18:38:15;;;;;;;8.57;1.40;;;10.60;99.90;;;;;;5013731;28;20216;-71
2022/01/29 18:40:43;;;;;;;5.93;1.60;;;10.60;99.90;;;;;;5014019;28;20721;-72
2022/01/29 18:43:14;;;;;;;3.27;1.60;;;10.60;99.90;;;;;;5012511;28;20202;-71
2022/01/29 18:45:42;;;;;;;11.67;1.67;;;10.50;99.90;;;;;;5013653;28;20205;-71
2022/01/29 18:48:09;;;;;;;7.27;1.43;;;10.50;99.90;;;;;;5013569;28;20233;-71
2022/01/29 18:50:36;;;;;;;3.53;1.40;;;10.40;99.90;;;;;;5013575;28;20213;-71
2022/01/29 18:53:03;;;;;;;3.70;1.37;;;10.40;99.90;;;;;;5015412;28;20202;-71
2022/01/29 18:55:30;;;;;;;6.83;1.97;;;10.40;99.90;;;;;;5013789;28;20229;-71
2022/01/29 18:57:57;;;;;;;10.03;2.10;;;10.40;99.90;;;;;;5012628;28;20201;-71
2022/01/29 19:00:25;;;;;;;6.80;1.63;;;10.40;99.90;;;;;;5013577;28;20217;-71
2022/01/29 19:02:53;;;;;;;4.17;1.50;;;10.60;99.90;;;;;;5013435;28;20212;-71
2022/01/29 19:05:20;;;;;;;4.33;1.33;;;10.60;99.90;;;;;;5011479;28;20248;-71
2022/01/29 19:07:47;;;;;;;4.23;1.60;;;10.70;99.90;;;;;;5013755;28;20205;-71
2022/01/29 19:10:16;;;;;;;3.17;1.40;;;10.80;99.90;;;;;;5012691;28;20204;-71
2022/01/29 19:12:43;;;;;;;2.30;1.03;;;10.80;99.90;;;;;;5012263;28;20198;-71
2022/01/29 19:15:16;;;;;;;6.97;1.60;;;10.80;99.90;;;;;;5012851;28;20348;-71
2022/01/29 19:17:44;;;;;;;5.27;1.67;;;10.70;99.90;;;;;;5013652;28;20209;-72
2022/01/29 19:20:12;;;;;;;6.80;1.70;;;10.80;99.90;;;;;;5013731;28;20205;-72
2022/01/29 19:22:39;;;;;;;3.83;1.37;;;10.80;99.90;;;;;;5013387;28;20212;-72
2022/01/29 19:25:07;;;;;;;4.47;1.73;;;10.90;99.90;;;;;;5012948;28;20232;-72
2022/01/29 19:27:34;;;;;;;9.77;1.77;;;10.90;99.90;;;;;;5015917;28;20205;-72
2022/01/29 19:30:01;;;;;;;3.83;1.70;;;11.00;99.90;;;;;;5013462;28;20205;-71
2022/01/29 19:32:27;;;;;;;4.40;1.43;;;11.00;99.90;;;;;;5012974;28;20573;-71
2022/01/29 19:34:56;;;;;;;3.73;1.40;;;11.00;99.90;;;;;;5012758;28;20230;-71
2022/01/29 19:37:22;;;;;;;8.73;1.87;;;11.00;99.90;;;;;;5013451;28;20202;-71
2022/01/29 19:39:49;;;;;;;9.43;2.20;;;11.00;99.90;;;;;;5013028;28;20658;-72
2022/01/29 19:42:16;;;;;;;9.03;1.53;;;11.00;99.90;;;;;;5012429;28;20210;-71
2022/01/29 19:44:44;;;;;;;4.20;1.47;;;11.00;99.90;;;;;;5016090;28;20618;-71
2022/01/29 19:47:12;;;;;;;5.90;1.53;;;11.00;99.90;;;;;;5012651;28;20209;-71
2022/01/29 19:49:39;;;;;;;7.37;1.70;;;11.00;99.90;;;;;;5013183;28;20275;-71
2022/01/29 19:52:07;;;;;;;4.83;1.53;;;11.00;99.90;;;;;;5012864;28;20210;-71
2022/01/29 19:54:35;;;;;;;4.33;1.67;;;11.00;99.90;;;;;;5011791;28;20221;-71
2022/01/29 19:57:02;;;;;;;6.47;1.57;;;11.00;99.90;;;;;;5011255;28;20236;-71
2022/01/29 19:59:29;;;;;;;6.50;2.10;;;11.00;99.90;;;;;;5012852;28;20201;-71
2022/01/29 20:01:58;;;;;;;6.07;1.77;;;11.00;99.90;;;;;;4995084;28;20213;-69
2022/01/29 20:04:25;;;;;;;5.27;1.57;;;11.00;99.90;;;;;;4992261;28;20761;-70
2022/01/29 20:06:52;;;;;;;8.33;2.43;;;11.00;99.90;;;;;;4994975;28;20210;-70
2022/01/29 20:11:50;;;;;;;8.23;1.53;;;11.00;99.90;;;;;;5030704;28;20263;-72
2022/01/29 20:14:17;;;;;;;8.47;1.60;;;11.00;99.90;;;;;;5022012;28;20236;-72
2022/01/29 20:16:45;;;;;;;10.63;1.63;;;10.90;99.90;;;;;;5014280;28;20267;-72
2022/01/29 20:19:12;;;;;;;10.03;1.27;;;10.90;99.90;;;;;;5008169;28;20198;-71
2022/01/29 20:21:40;;;;;;;8.60;2.03;;;10.80;99.90;;;;;;4996909;28;20206;-71
2022/01/29 20:24:08;;;;;;;7.40;1.60;;;10.80;99.90;;;;;;5008035;28;20705;-72
2022/01/29 20:26:34;;;;;;;7.53;1.70;;;10.70;99.90;;;;;;5016559;28;20216;-72
2022/01/29 20:29:06;;;;;;;5.07;1.10;;;10.70;99.90;;;;;;5016200;28;20205;-72
2022/01/29 20:31:34;;;;;;;8.80;1.20;;;10.70;99.90;;;;;;5016146;28;20205;-72
2022/01/29 20:34:01;;;;;;;10.23;1.00;;;10.60;99.90;;;;;;5015984;28;20228;-72
2022/01/29 20:36:32;;;;;;;5.83;1.30;;;10.60;99.90;;;;;;5003428;28;20230;-72
2022/01/29 20:39:00;;;;;;;7.43;1.23;;;10.40;99.90;;;;;;4996904;28;20248;-72
2022/01/29 20:41:28;;;;;;;8.27;1.53;;;10.40;99.90;;;;;;4997027;28;20206;-72
2022/01/29 20:43:55;;;;;;;8.30;1.20;;;10.30;99.90;;;;;;4996118;28;20227;-72
2022/01/29 20:46:23;;;;;;;10.07;1.33;;;10.30;99.90;;;;;;4996327;28;20280;-71
2022/01/29 20:48:50;;;;;;;4.83;1.03;;;10.20;99.90;;;;;;4996847;28;20206;-71
2022/01/29 20:51:17;;;;;;;7.77;1.17;;;10.10;99.90;;;;;;4996560;28;20735;-72
2022/01/29 20:53:44;;;;;;;8.50;1.33;;;10.10;99.90;;;;;;4996365;28;20237;-71
2022/01/29 20:56:11;;;;;;;8.27;2.03;;;10.10;99.90;;;;;;4996161;28;20234;-72
2022/01/29 20:58:38;;;;;;;7.73;1.87;;;10.00;99.90;;;;;;4996323;28;20566;-72
2022/01/29 21:01:05;;;;;;;9.37;1.20;;;10.00;99.90;;;;;;4996695;28;20207;-72
2022/01/29 21:03:33;;;;;;;6.03;1.00;;;10.00;99.90;;;;;;4996189;28;20237;-71
2022/01/29 21:06:00;;;;;;;8.53;1.43;;;10.00;99.90;;;;;;4996458;28;20202;-72
2022/01/29 21:08:27;;;;;;;9.43;1.50;;;9.90;99.90;;;;;;5006254;28;20213;-73